Brizo — WDF9201 — position and weather

sailwx.info

Track history (hours):
 
Tides and Currents Weather Stations Pressure Air Temp Water Temp Dewpoint Dewpoint Depression Visibility Wind Speed Wind Dir Waves Ship Positions

Brizo

Owner: Squadron Marine Ltd, Westlake, OH. More information available from US FCC via Universal Licensing System and Coast Guard Vessel Documentation Center.

Last reported at 2017-Oct-22 16:01 UTC. Time now 2017-Dec-12 10:32 UTC.
Position N 38°58' W 076°29'.
Warning: this ship's position is 50 days out of date.

Length 16 m.

Type: Sailing vessel. MMSI: 367502720.

Date/timePositionNaut miles runAvg speedWind from/ knotsBaromVisibWave heightAir tempDewpointWater temp
2017-Oct-22 16:01N 38°58' W 076°29'0 0.0
2017-Oct-22 15:58N 38°58' W 076°29'1 1.4
2017-Oct-22 15:30N 38°58' W 076°28'3 6.3
2017-Oct-22 15:00N 38°55' W 076°26'4 6.7
2017-Oct-22 14:29N 38°52' W 076°24'3 6.5
2017-Oct-22 14:00N 38°49' W 076°23'4 6.3
2017-Oct-22 13:22N 38°51' W 076°18'3 5.2
2017-Oct-22 12:48N 38°52' W 076°14'2 5.5
2017-Oct-22 12:29N 38°51' W 076°13'9 0.4
2017-Oct-21 17:07N 38°50' W 076°24'1 7.4
2017-Oct-21 16:58N 38°51' W 076°24'4 7.3
2017-Oct-21 16:27N 38°55' W 076°26'3 6.9
2017-Oct-21 16:00N 38°58' W 076°28'1 2.0
2017-Oct-21 15:30N 38°58' W 076°29'  
Track history (hours):
 
Tides and Currents Weather Stations Pressure Air Temp Water Temp Dewpoint Dewpoint Depression Visibility Wind Speed Wind Dir Waves Ship Positions

Brizo

Owner: Squadron Marine Ltd, Westlake, OH. More information available from US FCC via Universal Licensing System and Coast Guard Vessel Documentation Center.

Last reported at 2017-Oct-22 16:01 UTC. Time now 2017-Dec-12 10:32 UTC.
Position N 38°58' W 076°29'.
Warning: this ship's position is 50 days out of date.

Length 16 m.

Type: Sailing vessel. MMSI: 367502720.

Date/timePositionNaut miles runAvg speedWind from/ knotsBaromVisibWave heightAir tempDewpointWater temp
2017-Oct-22 16:01N 38°58' W 076°29'0 0.0
2017-Oct-22 15:58N 38°58' W 076°29'1 1.4
2017-Oct-22 15:30N 38°58' W 076°28'3 6.3
2017-Oct-22 15:00N 38°55' W 076°26'4 6.7
2017-Oct-22 14:29N 38°52' W 076°24'3 6.5
2017-Oct-22 14:00N 38°49' W 076°23'4 6.3
2017-Oct-22 13:22N 38°51' W 076°18'3 5.2
2017-Oct-22 12:48N 38°52' W 076°14'2 5.5
2017-Oct-22 12:29N 38°51' W 076°13'9 0.4
2017-Oct-21 17:07N 38°50' W 076°24'1 7.4
2017-Oct-21 16:58N 38°51' W 076°24'4 7.3
2017-Oct-21 16:27N 38°55' W 076°26'3 6.9
2017-Oct-21 16:00N 38°58' W 076°28'1 2.0
2017-Oct-21 15:30N 38°58' W 076°29'  

Dump ship's entire track history